createdAt,value
2018-07-08T00:01:04.177Z,18.40
2018-07-08T00:03:32.386Z,18.40
2018-07-08T00:06:00.643Z,18.40
2018-07-08T00:08:28.858Z,18.30
2018-07-08T00:10:58.316Z,18.30
2018-07-08T00:13:26.509Z,18.30
2018-07-08T00:15:54.657Z,18.30
2018-07-08T00:18:23.803Z,18.20
2018-07-08T00:20:53.077Z,18.10
2018-07-08T00:23:21.870Z,18.10
2018-07-08T00:25:50.088Z,18.10
2018-07-08T00:28:18.399Z,18.10
2018-07-08T00:30:46.697Z,18.10
2018-07-08T00:33:14.909Z,18.10
2018-07-08T00:35:43.124Z,18.10
2018-07-08T00:38:11.330Z,18.00
2018-07-08T00:40:39.499Z,18.00
2018-07-08T00:43:07.686Z,18.00
2018-07-08T00:45:35.878Z,17.90
2018-07-08T00:48:04.052Z,17.80
2018-07-08T00:50:32.330Z,17.80
2018-07-08T00:53:00.513Z,17.90
2018-07-08T00:55:29.305Z,17.80
2018-07-08T00:57:57.676Z,17.80
2018-07-08T01:00:33.506Z,17.70
2018-07-08T01:03:03.011Z,17.60
2018-07-08T01:05:42.564Z,17.60
2018-07-08T01:13:57.945Z,17.40
2018-07-08T01:16:30.258Z,17.40
2018-07-08T01:22:20.740Z,17.40
2018-07-08T01:25:17.198Z,17.40
2018-07-08T01:27:52.267Z,17.40
2018-07-08T01:31:39.964Z,17.30
2018-07-08T01:34:40.605Z,17.20
2018-07-08T01:40:02.234Z,17.20
2018-07-08T01:42:31.353Z,17.10
2018-07-08T01:45:21.816Z,17.10
2018-07-08T01:58:23.785Z,16.90
2018-07-08T02:07:22.767Z,16.60
2018-07-08T02:09:54.239Z,16.70
2018-07-08T02:12:23.128Z,16.60
2018-07-08T02:14:52.038Z,16.50
2018-07-08T02:17:20.952Z,16.50
2018-07-08T02:19:50.376Z,16.50
2018-07-08T02:22:18.652Z,16.50
2018-07-08T02:24:46.819Z,16.50
2018-07-08T02:27:15.024Z,16.50
2018-07-08T02:29:43.172Z,16.50
2018-07-08T02:32:11.368Z,16.40
2018-07-08T02:34:39.569Z,16.40
2018-07-08T02:37:07.714Z,16.40
2018-07-08T02:39:36.203Z,16.40
2018-07-08T02:42:04.345Z,16.40
2018-07-08T02:44:32.622Z,16.40
2018-07-08T02:47:00.775Z,16.50
2018-07-08T02:49:28.944Z,16.40
2018-07-08T02:51:57.458Z,16.50
2018-07-08T02:54:25.731Z,16.50
2018-07-08T02:56:53.894Z,16.50
2018-07-08T02:59:22.050Z,16.50
2018-07-08T03:01:50.193Z,16.50
2018-07-08T03:04:18.373Z,16.60
2018-07-08T03:06:46.532Z,16.50
2018-07-08T03:09:14.821Z,16.40
2018-07-08T03:11:42.989Z,16.40
2018-07-08T03:14:11.201Z,16.40
2018-07-08T03:16:39.421Z,16.50
2018-07-08T03:19:07.602Z,16.50
2018-07-08T03:21:35.777Z,16.50
2018-07-08T03:24:04.015Z,16.50
2018-07-08T03:26:32.211Z,16.50
2018-07-08T03:29:00.404Z,16.60
2018-07-08T03:31:28.606Z,16.60
2018-07-08T03:33:56.785Z,16.60
2018-07-08T03:36:24.957Z,16.60
2018-07-08T03:38:53.128Z,16.70
2018-07-08T03:41:21.330Z,16.70
2018-07-08T03:43:49.507Z,16.60
2018-07-08T03:46:17.636Z,16.60
2018-07-08T03:48:45.784Z,16.60
2018-07-08T03:51:13.974Z,16.60
2018-07-08T03:53:42.157Z,16.70
2018-07-08T03:56:10.351Z,16.70
2018-07-08T03:58:38.528Z,16.70
2018-07-08T04:01:06.764Z,16.70
2018-07-08T04:03:34.934Z,16.70
2018-07-08T04:06:03.122Z,16.60
2018-07-08T04:08:31.265Z,16.60
2018-07-08T04:10:59.401Z,16.60
2018-07-08T04:13:27.545Z,16.60
2018-07-08T04:15:55.701Z,16.70
2018-07-08T04:18:23.857Z,16.60
2018-07-08T04:20:52.050Z,16.60
2018-07-08T04:23:20.234Z,16.60
2018-07-08T04:25:48.379Z,16.60
2018-07-08T04:28:16.618Z,16.60
2018-07-08T04:30:44.861Z,16.60
2018-07-08T04:33:13.112Z,16.60
2018-07-08T04:35:41.335Z,16.60
2018-07-08T04:38:09.562Z,16.70
2018-07-08T04:40:37.739Z,16.60
2018-07-08T04:43:05.905Z,16.60
2018-07-08T04:45:34.089Z,16.60
2018-07-08T04:48:02.274Z,16.60
2018-07-08T04:50:30.443Z,16.60
2018-07-08T04:52:58.614Z,16.70
2018-07-08T04:57:54.665Z,16.80
2018-07-08T05:00:22.813Z,16.80
2018-07-08T05:02:50.990Z,16.80
2018-07-08T05:05:19.160Z,16.80
2018-07-08T05:07:47.334Z,16.80
2018-07-08T05:12:43.401Z,16.90
2018-07-08T05:15:11.546Z,16.90
2018-07-08T05:17:40.069Z,16.90
2018-07-08T05:20:08.239Z,16.90
2018-07-08T05:22:36.390Z,16.90
2018-07-08T05:25:04.668Z,17.00
2018-07-08T05:27:32.842Z,17.00
2018-07-08T05:30:00.990Z,17.10
2018-07-08T05:32:29.231Z,17.20
2018-07-08T05:34:57.339Z,17.20
2018-07-08T05:37:25.477Z,17.20
2018-07-08T05:39:53.689Z,17.10
2018-07-08T05:42:21.839Z,17.10
2018-07-08T05:44:49.978Z,17.10
2018-07-08T05:47:18.132Z,17.10
2018-07-08T05:49:46.317Z,17.10
2018-07-08T05:52:14.530Z,17.20
2018-07-08T05:54:42.710Z,17.30
2018-07-08T05:57:10.914Z,17.30
2018-07-08T05:59:39.090Z,17.40
2018-07-08T06:02:07.390Z,17.50
2018-07-08T06:04:35.630Z,17.50
2018-07-08T06:07:03.737Z,17.60
2018-07-08T06:09:31.953Z,17.70
2018-07-08T06:12:00.167Z,17.80
2018-07-08T06:14:29.022Z,17.90
2018-07-08T06:16:58.280Z,18.00
2018-07-08T06:19:26.373Z,18.20
2018-07-08T06:21:54.605Z,18.40
2018-07-08T06:24:23.071Z,18.60
2018-07-08T06:26:51.319Z,18.90
2018-07-08T06:29:19.483Z,19.30
2018-07-08T06:31:47.696Z,19.50
2018-07-08T06:34:15.870Z,19.80
2018-07-08T06:36:44.063Z,20.00
2018-07-08T06:39:13.483Z,20.10
2018-07-08T06:41:41.739Z,20.40
2018-07-08T06:44:10.026Z,20.60
2018-07-08T06:46:38.190Z,20.90
2018-07-08T06:49:06.378Z,21.00
2018-07-08T06:51:34.558Z,21.00
2018-07-08T06:54:02.760Z,21.20
2018-07-08T06:56:30.975Z,21.20
2018-07-08T06:58:59.106Z,21.30
2018-07-08T07:01:27.320Z,21.50
2018-07-08T07:03:56.818Z,21.70
2018-07-08T07:06:24.995Z,21.80
2018-07-08T07:08:54.111Z,21.90
2018-07-08T07:17:06.550Z,22.40
2018-07-08T07:19:34.721Z,22.80
2018-07-08T07:22:02.821Z,23.10
2018-07-08T07:24:30.977Z,23.00
2018-07-08T07:26:59.240Z,22.90
2018-07-08T07:29:27.380Z,22.90
2018-07-08T07:31:55.776Z,23.00
2018-07-08T07:34:23.898Z,22.90
2018-07-08T07:36:52.021Z,22.80
2018-07-08T07:39:20.147Z,22.50
2018-07-08T07:41:48.295Z,22.40
2018-07-08T07:44:16.423Z,22.50
2018-07-08T07:49:12.562Z,22.50
2018-07-08T07:51:40.700Z,22.50
2018-07-08T07:54:08.872Z,22.50
2018-07-08T07:59:05.039Z,22.90
2018-07-08T08:01:33.120Z,23.30
2018-07-08T08:04:01.250Z,23.50
2018-07-08T08:06:29.385Z,23.80
2018-07-08T08:08:57.502Z,23.70
2018-07-08T08:11:25.652Z,23.60
2018-07-08T08:14:00.958Z,23.70
2018-07-08T08:16:29.392Z,23.70
2018-07-08T08:18:57.735Z,23.70
2018-07-08T08:21:26.353Z,23.80
2018-07-08T08:23:55.362Z,23.90
2018-07-08T08:26:23.519Z,24.20
2018-07-08T08:28:51.637Z,24.50
2018-07-08T08:31:20.038Z,24.80
2018-07-08T08:35:06.031Z,25.00
2018-07-08T08:37:36.363Z,25.30
2018-07-08T08:40:05.042Z,25.30
2018-07-08T08:42:33.161Z,25.40
2018-07-08T08:45:01.674Z,25.50
2018-07-08T08:47:31.054Z,25.60
2018-07-08T08:49:59.232Z,25.70
2018-07-08T08:52:27.381Z,25.80
2018-07-08T08:54:55.931Z,25.90
2018-07-08T08:57:24.081Z,26.00
2018-07-08T08:59:52.198Z,26.00
2018-07-08T09:02:20.367Z,26.10
2018-07-08T09:04:48.527Z,26.30
2018-07-08T09:07:18.110Z,26.50
2018-07-08T09:09:47.013Z,26.50
2018-07-08T09:12:15.398Z,26.50
2018-07-08T09:14:44.365Z,26.60
2018-07-08T09:17:12.943Z,26.70
2018-07-08T09:19:41.122Z,26.80
2018-07-08T09:22:09.594Z,26.80
2018-07-08T09:24:37.714Z,26.90
2018-07-08T09:27:05.951Z,26.90
2018-07-08T09:29:34.059Z,27.00
2018-07-08T09:34:31.089Z,27.00
2018-07-08T09:36:59.294Z,27.20
2018-07-08T09:39:27.422Z,27.20
2018-07-08T09:41:55.541Z,27.20
2018-07-08T09:44:23.724Z,27.40
2018-07-08T09:46:51.885Z,27.50
2018-07-08T09:49:20.282Z,27.60
2018-07-08T09:54:16.905Z,27.90
2018-07-08T09:56:45.446Z,27.80
2018-07-08T09:59:13.574Z,27.90
2018-07-08T10:01:43.637Z,28.00
2018-07-08T10:04:14.068Z,28.10
2018-07-08T10:06:43.001Z,28.20
2018-07-08T10:09:12.490Z,28.20
2018-07-08T10:11:40.658Z,28.10
2018-07-08T10:14:10.570Z,27.90
2018-07-08T10:16:39.077Z,27.70
2018-07-08T10:19:08.711Z,27.80
2018-07-08T10:21:36.856Z,27.60
2018-07-08T10:24:04.950Z,27.80
2018-07-08T10:26:33.259Z,28.10
2018-07-08T10:29:01.398Z,28.40
2018-07-08T10:31:40.953Z,28.50
2018-07-08T10:36:37.718Z,28.30
2018-07-08T10:39:07.072Z,28.40
2018-07-08T10:41:35.258Z,28.30
2018-07-08T10:44:03.969Z,28.40
2018-07-08T10:46:32.100Z,28.30
2018-07-08T10:49:00.202Z,28.40
2018-07-08T10:51:28.373Z,28.30
2018-07-08T10:53:56.484Z,28.30
2018-07-08T10:56:24.642Z,28.40
2018-07-08T10:58:52.765Z,28.50
2018-07-08T11:01:20.905Z,28.70
2018-07-08T11:03:49.061Z,28.70
2018-07-08T11:06:17.153Z,28.70
2018-07-08T11:08:45.308Z,28.60
2018-07-08T11:11:13.450Z,28.60
2018-07-08T11:13:41.583Z,28.50
2018-07-08T11:16:10.888Z,28.60
2018-07-08T11:18:39.113Z,28.60
2018-07-08T11:21:07.229Z,28.80
2018-07-08T11:23:35.359Z,29.00
2018-07-08T11:26:03.477Z,29.00
2018-07-08T11:28:31.657Z,29.10
2018-07-08T11:30:59.777Z,29.20
2018-07-08T11:33:27.869Z,29.20
2018-07-08T11:35:55.958Z,29.30
2018-07-08T11:38:24.077Z,29.30
2018-07-08T11:40:52.189Z,29.10
2018-07-08T11:43:20.388Z,28.90
2018-07-08T11:45:48.503Z,28.90
2018-07-08T11:48:16.654Z,28.70
2018-07-08T11:50:44.827Z,28.50
2018-07-08T11:53:12.958Z,28.20
2018-07-08T11:58:09.057Z,28.20
2018-07-08T12:00:37.164Z,28.20
2018-07-08T12:03:05.305Z,28.10
2018-07-08T12:05:33.429Z,28.00
2018-07-08T12:08:01.533Z,28.10
2018-07-08T12:10:29.685Z,28.20
2018-07-08T12:12:57.858Z,28.30
2018-07-08T12:15:27.074Z,28.40
2018-07-08T12:17:55.253Z,28.60
2018-07-08T12:20:23.975Z,28.70
2018-07-08T12:22:52.119Z,28.70
2018-07-08T12:25:20.365Z,28.80
2018-07-08T12:27:48.508Z,28.80
2018-07-08T12:30:16.624Z,28.90
2018-07-08T12:32:45.763Z,28.90
2018-07-08T12:35:13.971Z,29.00
2018-07-08T12:37:42.146Z,29.20
2018-07-08T12:40:10.312Z,29.30
2018-07-08T12:42:38.413Z,29.40
2018-07-08T12:45:06.594Z,29.40
2018-07-08T12:47:34.751Z,29.40
2018-07-08T12:50:02.911Z,29.30
2018-07-08T12:52:31.486Z,29.10
2018-07-08T12:55:00.195Z,28.90
2018-07-08T12:57:28.343Z,28.80
2018-07-08T12:59:56.510Z,28.90
2018-07-08T13:02:24.659Z,28.90
2018-07-08T13:04:52.786Z,28.80
2018-07-08T13:07:20.987Z,28.90
2018-07-08T13:09:49.107Z,29.00
2018-07-08T13:12:17.235Z,29.10
2018-07-08T13:14:45.397Z,29.00
2018-07-08T13:17:14.628Z,29.00
2018-07-08T13:19:42.872Z,29.10
2018-07-08T13:22:11.059Z,29.00
2018-07-08T13:24:39.696Z,28.80
2018-07-08T13:27:07.934Z,28.80
2018-07-08T13:29:36.085Z,28.80
2018-07-08T13:32:04.265Z,28.80
2018-07-08T13:34:32.346Z,28.90
2018-07-08T13:37:00.485Z,29.00
2018-07-08T13:39:28.610Z,29.10
2018-07-08T13:41:56.774Z,29.10
2018-07-08T13:44:24.903Z,29.20
2018-07-08T13:46:53.104Z,29.20
2018-07-08T13:49:21.932Z,29.10
2018-07-08T13:51:50.046Z,28.90
2018-07-08T13:54:18.205Z,28.90
2018-07-08T13:56:49.397Z,28.80
2018-07-08T13:59:17.517Z,28.80
2018-07-08T14:04:13.578Z,28.80
2018-07-08T14:06:41.780Z,28.80
2018-07-08T14:09:09.928Z,28.80
2018-07-08T14:11:38.349Z,28.90
2018-07-08T14:14:06.453Z,28.90
2018-07-08T14:16:35.287Z,28.90
2018-07-08T14:19:03.409Z,29.00
2018-07-08T14:21:31.524Z,28.90
2018-07-08T14:23:59.682Z,28.90
2018-07-08T14:26:27.859Z,28.80
2018-07-08T14:28:55.961Z,28.90
2018-07-08T14:31:24.085Z,28.90
2018-07-08T14:33:52.226Z,28.90
2018-07-08T14:36:21.298Z,28.90
2018-07-08T14:38:49.432Z,28.80
2018-07-08T14:41:17.594Z,28.80
2018-07-08T14:43:45.806Z,28.80
2018-07-08T14:46:13.989Z,28.80
2018-07-08T14:48:42.204Z,28.80
2018-07-08T14:51:10.394Z,28.70
2018-07-08T14:53:38.522Z,28.50
2018-07-08T14:56:06.687Z,28.50
2018-07-08T14:58:35.686Z,28.50
2018-07-08T15:01:03.806Z,28.60
2018-07-08T15:03:31.946Z,28.50
2018-07-08T15:06:00.096Z,28.50
2018-07-08T15:08:28.421Z,28.60
2018-07-08T15:10:56.584Z,28.60
2018-07-08T15:13:24.722Z,28.60
2018-07-08T15:15:52.955Z,28.50
2018-07-08T15:18:21.050Z,28.50
2018-07-08T15:20:49.176Z,28.50
2018-07-08T15:23:17.314Z,28.50
2018-07-08T15:25:45.458Z,28.50
2018-07-08T15:28:13.614Z,28.40
2018-07-08T15:30:41.804Z,28.30
2018-07-08T15:33:10.206Z,28.20
2018-07-08T15:35:38.747Z,28.10
2018-07-08T15:38:07.069Z,28.00
2018-07-08T15:40:36.062Z,27.90
2018-07-08T15:43:04.211Z,27.90
2018-07-08T15:45:32.364Z,27.80
2018-07-08T15:48:00.907Z,27.90
2018-07-08T15:50:29.099Z,27.80
2018-07-08T15:53:00.921Z,27.80
2018-07-08T15:55:29.076Z,27.80
2018-07-08T15:57:57.178Z,27.70
2018-07-08T16:00:25.321Z,27.70
2018-07-08T16:02:53.898Z,27.70
2018-07-08T16:05:22.022Z,27.70
2018-07-08T16:07:50.149Z,27.60
2018-07-08T16:10:18.316Z,27.50
2018-07-08T16:12:48.304Z,27.50
2018-07-08T16:15:16.880Z,27.60
2018-07-08T16:17:45.043Z,27.60
2018-07-08T16:20:14.324Z,27.60
2018-07-08T16:22:42.468Z,27.40
2018-07-08T16:25:10.677Z,27.30
2018-07-08T16:27:39.834Z,27.20
2018-07-08T16:30:08.531Z,27.20
2018-07-08T16:32:36.683Z,27.20
2018-07-08T16:35:04.817Z,27.10
2018-07-08T16:37:32.955Z,27.10
2018-07-08T16:40:02.155Z,27.10
2018-07-08T16:42:30.888Z,27.10
2018-07-08T16:44:59.022Z,27.00
2018-07-08T16:47:29.125Z,26.90
2018-07-08T16:49:57.846Z,26.90
2018-07-08T16:52:40.704Z,26.90
2018-07-08T16:55:08.939Z,26.90
2018-07-08T17:08:28.325Z,26.70
2018-07-08T17:17:01.559Z,26.70
2018-07-08T17:19:30.104Z,26.70
2018-07-08T17:22:16.456Z,26.70
2018-07-08T17:25:45.661Z,26.60
2018-07-08T17:28:52.984Z,26.50
2018-07-08T17:31:21.129Z,26.40
2018-07-08T17:33:49.290Z,26.40
2018-07-08T17:36:17.482Z,26.40
2018-07-08T17:38:45.729Z,26.30
2018-07-08T17:41:13.892Z,26.20
2018-07-08T17:43:42.121Z,26.20
2018-07-08T17:46:10.335Z,26.10
2018-07-08T17:48:38.616Z,26.00
2018-07-08T17:51:06.763Z,25.90
2018-07-08T17:53:34.923Z,25.90
2018-07-08T17:56:04.378Z,25.80
2018-07-08T17:58:32.535Z,25.80
2018-07-08T18:01:00.700Z,25.70
2018-07-08T18:03:28.825Z,25.70
2018-07-08T18:05:56.986Z,25.60
2018-07-08T18:08:25.160Z,25.60
2018-07-08T18:10:53.368Z,25.50
2018-07-08T18:13:21.610Z,25.50
2018-07-08T18:18:17.833Z,25.30
2018-07-08T18:20:48.161Z,25.30
2018-07-08T18:29:07.721Z,25.10
2018-07-08T18:31:35.931Z,25.00
2018-07-08T18:49:34.328Z,24.70
2018-07-08T18:52:06.282Z,24.60
2018-07-08T18:56:45.853Z,24.50
2018-07-08T18:59:14.251Z,24.40
2018-07-08T19:02:06.071Z,24.30
2018-07-08T19:16:50.745Z,24.00
2018-07-08T19:19:29.307Z,23.90
2018-07-08T19:21:57.482Z,23.80
2018-07-08T19:24:25.733Z,23.80
2018-07-08T19:26:55.608Z,23.70
2018-07-08T19:29:43.321Z,23.70
2018-07-08T19:32:18.304Z,23.60
2018-07-08T19:34:46.465Z,23.50
2018-07-08T19:37:14.714Z,23.40
2018-07-08T19:39:43.291Z,23.30
2018-07-08T19:42:11.976Z,23.00
2018-07-08T19:44:40.358Z,22.80
2018-07-08T19:47:13.480Z,22.70
2018-07-08T19:49:43.682Z,22.60
2018-07-08T19:52:12.159Z,22.40
2018-07-08T19:54:41.823Z,22.30
2018-07-08T19:57:14.013Z,22.20
2018-07-08T19:59:43.532Z,22.20
2018-07-08T20:04:40.141Z,22.00
2018-07-08T20:07:09.515Z,22.00
2018-07-08T20:09:37.666Z,22.00
2018-07-08T20:12:06.894Z,21.90
2018-07-08T20:14:38.179Z,21.80
2018-07-08T20:17:09.941Z,21.70
2018-07-08T20:27:05.846Z,21.50
2018-07-08T20:29:34.872Z,21.20
2018-07-08T20:32:03.136Z,21.00
2018-07-08T20:34:31.272Z,20.70
2018-07-08T20:36:59.436Z,20.50
2018-07-08T20:39:27.620Z,20.50
2018-07-08T20:41:55.786Z,20.40
2018-07-08T20:44:23.942Z,20.20
2018-07-08T20:47:01.014Z,20.00
2018-07-08T20:49:29.457Z,19.80
2018-07-08T20:57:43.958Z,19.10
2018-07-08T21:00:13.695Z,18.90
2018-07-08T21:02:42.703Z,18.90
2018-07-08T21:05:11.038Z,18.80
2018-07-08T21:07:39.265Z,18.70
2018-07-08T21:10:08.567Z,18.70
2018-07-08T21:12:36.708Z,18.60
2018-07-08T21:15:05.889Z,18.50
2018-07-08T21:20:33.653Z,18.30
2018-07-08T21:23:02.511Z,18.30
2018-07-08T21:25:30.776Z,18.40
2018-07-08T21:28:05.058Z,18.30
2018-07-08T21:30:33.212Z,18.40
2018-07-08T21:33:01.470Z,18.40
2018-07-08T21:35:29.693Z,18.40
2018-07-08T21:37:57.802Z,18.40
2018-07-08T21:40:25.943Z,18.50
2018-07-08T21:43:12.210Z,18.50
2018-07-08T21:45:40.406Z,18.50
2018-07-08T21:48:08.536Z,18.40
2018-07-08T21:50:36.657Z,18.40
2018-07-08T21:53:04.806Z,18.30
2018-07-08T21:55:32.959Z,18.20
2018-07-08T21:58:01.087Z,18.00
2018-07-08T22:00:31.106Z,17.90
2018-07-08T22:02:59.400Z,17.70
2018-07-08T22:05:28.383Z,17.60
2018-07-08T22:08:02.917Z,17.40
2018-07-08T22:10:31.461Z,17.40
2018-07-08T22:13:00.838Z,17.30
2018-07-08T22:15:29.032Z,17.30
2018-07-08T22:17:57.543Z,17.30
2018-07-08T22:20:27.301Z,17.30
2018-07-08T22:22:55.495Z,17.20
2018-07-08T22:25:23.690Z,17.20
2018-07-08T22:27:51.889Z,17.10
2018-07-08T22:30:20.066Z,17.10
2018-07-08T22:32:48.266Z,17.20
2018-07-08T22:35:16.496Z,17.20
2018-07-08T22:40:43.972Z,17.30
2018-07-08T22:43:12.166Z,17.20
2018-07-08T22:45:40.884Z,17.10
2018-07-08T22:48:09.994Z,17.10
2018-07-08T22:50:41.522Z,16.90
2018-07-08T22:53:09.689Z,16.90
2018-07-08T22:55:37.797Z,16.80
2018-07-08T22:58:06.134Z,16.60
2018-07-08T23:00:45.662Z,16.50
2018-07-08T23:03:53.723Z,16.40
2018-07-08T23:06:21.842Z,16.30
2018-07-08T23:08:56.713Z,16.20
2018-07-08T23:11:25.489Z,16.10
2018-07-08T23:13:54.691Z,16.10
2018-07-08T23:16:23.413Z,16.00
2018-07-08T23:18:52.171Z,15.80
2018-07-08T23:21:20.354Z,15.70
2018-07-08T23:23:48.505Z,15.80
2018-07-08T23:26:16.641Z,15.80
2018-07-08T23:28:44.826Z,15.90
2018-07-08T23:31:13.301Z,15.90
2018-07-08T23:33:41.504Z,16.00
2018-07-08T23:36:10.192Z,15.90
2018-07-08T23:38:38.382Z,15.80
2018-07-08T23:41:07.663Z,15.80
2018-07-08T23:43:35.816Z,15.70
2018-07-08T23:46:04.266Z,15.70
2018-07-08T23:48:32.848Z,15.60
2018-07-08T23:51:00.974Z,15.50
2018-07-08T23:53:29.278Z,15.50
2018-07-08T23:55:57.436Z,15.40
2018-07-08T23:58:25.583Z,15.30
